sensor_id;sensor_type;location;lat;lon;timestamp;pressure;altitude;pressure_sealevel;temperature;humidity
71457;BME280;59263;48.160;11.752;2023-06-22T00:02:22;95895.34;;;19.17;100.00
71457;BME280;59263;48.160;11.752;2023-06-22T00:04:47;95934.22;;;19.41;100.00
71457;BME280;59263;48.160;11.752;2023-06-22T00:07:12;95872.53;;;19.10;100.00
71457;BME280;59263;48.160;11.752;2023-06-22T00:09:38;95842.59;;;18.92;100.00
71457;BME280;59263;48.160;11.752;2023-06-22T00:12:04;95888.53;;;19.22;100.00
71457;BME280;59263;48.160;11.752;2023-06-22T00:14:29;95934.72;;;19.58;100.00
71457;BME280;59263;48.160;11.752;2023-06-22T00:16:54;95876.84;;;19.25;100.00
71457;BME280;59263;48.160;11.752;2023-06-22T00:19:22;95918.09;;;19.44;100.00
71457;BME280;59263;48.160;11.752;2023-06-22T00:21:48;95839.97;;;18.98;100.00
71457;BME280;59263;48.160;11.752;2023-06-22T00:24:18;95863.44;;;19.06;100.00
71457;BME280;59263;48.160;11.752;2023-06-22T00:26:44;95846.47;;;19.02;100.00
71457;BME280;59263;48.160;11.752;2023-06-22T00:29:09;95942.38;;;19.59;100.00
71457;BME280;59263;48.160;11.752;2023-06-22T00:31:35;95895.38;;;19.23;100.00
71457;BME280;59263;48.160;11.752;2023-06-22T00:34:00;95906.75;;;19.37;100.00
71457;BME280;59263;48.160;11.752;2023-06-22T00:36:26;95907.13;;;19.34;100.00
71457;BME280;59263;48.160;11.752;2023-06-22T00:38:51;95897.03;;;19.31;100.00
71457;BME280;59263;48.160;11.752;2023-06-22T00:41:17;95887.69;;;19.15;100.00
71457;BME280;59263;48.160;11.752;2023-06-22T00:43:43;95903.06;;;19.25;100.00
71457;BME280;59263;48.160;11.752;2023-06-22T00:46:08;95896.19;;;19.24;100.00
71457;BME280;59263;48.160;11.752;2023-06-22T00:48:33;95902.91;;;19.33;100.00
71457;BME280;59263;48.160;11.752;2023-06-22T00:51:02;95920.47;;;19.32;100.00
71457;BME280;59263;48.160;11.752;2023-06-22T00:53:27;95905.88;;;19.23;100.00
71457;BME280;59263;48.160;11.752;2023-06-22T00:55:53;95923.09;;;19.32;100.00
71457;BME280;59263;48.160;11.752;2023-06-22T00:58:19;95888.44;;;19.02;100.00
71457;BME280;59263;48.160;11.752;2023-06-22T01:00:47;95941.47;;;19.39;100.00
71457;BME280;59263;48.160;11.752;2023-06-22T01:03:13;95877.53;;;18.99;100.00
71457;BME280;59263;48.160;11.752;2023-06-22T01:05:39;95920.41;;;19.19;100.00
71457;BME280;59263;48.160;11.752;2023-06-22T01:10:43;95887.97;;;18.92;100.00
71457;BME280;59263;48.160;11.752;2023-06-22T01:13:41;95883.13;;;18.89;100.00
71457;BME280;59263;48.160;11.752;2023-06-22T01:16:17;95903.22;;;19.10;100.00
71457;BME280;59263;48.160;11.752;2023-06-22T01:18:45;95899.16;;;19.07;100.00
71457;BME280;59263;48.160;11.752;2023-06-22T01:21:16;95903.97;;;19.04;100.00
71457;BME280;59263;48.160;11.752;2023-06-22T01:28:56;95861.00;;;18.70;100.00
71457;BME280;59263;48.160;11.752;2023-06-22T01:31:25;95866.88;;;18.72;100.00
71457;BME280;59263;48.160;11.752;2023-06-22T01:33:54;95883.28;;;18.81;100.00
71457;BME280;59263;48.160;11.752;2023-06-22T01:36:21;95885.91;;;18.81;100.00
71457;BME280;59263;48.160;11.752;2023-06-22T01:38:48;95872.81;;;18.59;100.00
71457;BME280;59263;48.160;11.752;2023-06-22T01:41:13;95844.50;;;18.48;100.00
71457;BME280;59263;48.160;11.752;2023-06-22T01:43:39;95896.38;;;18.81;100.00
71457;BME280;59263;48.160;11.752;2023-06-22T01:46:06;95831.78;;;18.45;100.00
71457;BME280;59263;48.160;11.752;2023-06-22T01:48:31;95791.69;;;18.17;100.00
71457;BME280;59263;48.160;11.752;2023-06-22T01:50:57;95856.88;;;18.54;100.00
71457;BME280;59263;48.160;11.752;2023-06-22T01:53:24;95849.56;;;18.50;100.00
71457;BME280;59263;48.160;11.752;2023-06-22T01:55:49;95856.03;;;18.54;100.00
71457;BME280;59263;48.160;11.752;2023-06-22T01:58:15;95814.19;;;18.32;100.00
71457;BME280;59263;48.160;11.752;2023-06-22T02:00:45;95824.50;;;18.41;100.00
71457;BME280;59263;48.160;11.752;2023-06-22T02:03:14;95803.59;;;18.19;100.00
71457;BME280;59263;48.160;11.752;2023-06-22T02:06:09;95870.19;;;18.59;100.00
71457;BME280;59263;48.160;11.752;2023-06-22T02:08:41;95863.09;;;18.53;100.00
71457;BME280;59263;48.160;11.752;2023-06-22T02:11:13;95849.75;;;18.48;100.00
71457;BME280;59263;48.160;11.752;2023-06-22T02:13:40;95829.47;;;18.29;100.00
71457;BME280;59263;48.160;11.752;2023-06-22T02:16:10;95830.34;;;18.36;100.00
71457;BME280;59263;48.160;11.752;2023-06-22T02:18:36;95797.19;;;18.22;100.00
71457;BME280;59263;48.160;11.752;2023-06-22T02:21:02;95805.22;;;18.20;100.00
71457;BME280;59263;48.160;11.752;2023-06-22T02:23:28;95860.28;;;18.55;100.00
71457;BME280;59263;48.160;11.752;2023-06-22T02:25:53;95822.84;;;18.33;100.00
71457;BME280;59263;48.160;11.752;2023-06-22T02:28:19;95862.31;;;18.59;100.00
71457;BME280;59263;48.160;11.752;2023-06-22T02:30:44;95884.91;;;18.60;100.00
71457;BME280;59263;48.160;11.752;2023-06-22T02:33:09;95861.41;;;18.46;100.00
71457;BME280;59263;48.160;11.752;2023-06-22T02:35:35;95905.56;;;18.70;100.00
71457;BME280;59263;48.160;11.752;2023-06-22T02:38:02;95910.97;;;18.69;100.00
71457;BME280;59263;48.160;11.752;2023-06-22T02:40:29;95898.28;;;18.66;100.00
71457;BME280;59263;48.160;11.752;2023-06-22T02:42:55;95830.16;;;18.16;100.00
71457;BME280;59263;48.160;11.752;2023-06-22T02:45:20;95855.66;;;18.29;100.00
71457;BME280;59263;48.160;11.752;2023-06-22T02:47:46;95886.44;;;18.48;100.00
71457;BME280;59263;48.160;11.752;2023-06-22T02:50:13;95870.75;;;18.27;100.00
71457;BME280;59263;48.160;11.752;2023-06-22T02:52:39;95910.41;;;18.45;100.00
71457;BME280;59263;48.160;11.752;2023-06-22T02:55:05;95937.16;;;18.62;100.00
71457;BME280;59263;48.160;11.752;2023-06-22T02:57:32;95890.97;;;18.33;100.00
71457;BME280;59263;48.160;11.752;2023-06-22T02:59:57;95886.31;;;18.35;100.00
71457;BME280;59263;48.160;11.752;2023-06-22T03:02:23;95910.59;;;18.44;100.00
71457;BME280;59263;48.160;11.752;2023-06-22T03:04:48;95881.94;;;18.35;100.00
71457;BME280;59263;48.160;11.752;2023-06-22T03:07:14;95897.06;;;18.40;100.00
71457;BME280;59263;48.160;11.752;2023-06-22T03:09:40;95896.81;;;18.35;100.00
71457;BME280;59263;48.160;11.752;2023-06-22T03:12:07;95887.47;;;18.26;100.00
71457;BME280;59263;48.160;11.752;2023-06-22T03:14:32;95888.66;;;18.23;100.00
71457;BME280;59263;48.160;11.752;2023-06-22T03:16:58;95861.44;;;17.96;100.00
71457;BME280;59263;48.160;11.752;2023-06-22T03:19:28;95894.22;;;18.13;100.00
71457;BME280;59263;48.160;11.752;2023-06-22T03:21:54;95887.31;;;18.06;100.00
71457;BME280;59263;48.160;11.752;2023-06-22T03:24:20;95928.66;;;18.32;100.00
71457;BME280;59263;48.160;11.752;2023-06-22T03:26:45;95863.41;;;17.94;100.00
71457;BME280;59263;48.160;11.752;2023-06-22T03:29:12;95902.47;;;18.32;100.00
71457;BME280;59263;48.160;11.752;2023-06-22T03:31:37;95885.44;;;18.21;100.00
71457;BME280;59263;48.160;11.752;2023-06-22T03:34:02;95849.72;;;17.92;100.00
71457;BME280;59263;48.160;11.752;2023-06-22T03:36:28;95874.03;;;18.07;100.00
71457;BME280;59263;48.160;11.752;2023-06-22T03:38:53;95910.41;;;18.24;100.00
71457;BME280;59263;48.160;11.752;2023-06-22T03:41:18;95880.00;;;18.01;100.00
71457;BME280;59263;48.160;11.752;2023-06-22T03:43:44;95922.09;;;18.21;100.00
71457;BME280;59263;48.160;11.752;2023-06-22T03:46:09;95865.72;;;17.82;100.00
71457;BME280;59263;48.160;11.752;2023-06-22T03:48:34;95908.28;;;18.06;100.00
71457;BME280;59263;48.160;11.752;2023-06-22T03:51:02;95858.34;;;17.71;100.00
71457;BME280;59263;48.160;11.752;2023-06-22T03:53:28;95889.22;;;17.97;100.00
71457;BME280;59263;48.160;11.752;2023-06-22T03:55:54;95922.41;;;18.11;100.00
71457;BME280;59263;48.160;11.752;2023-06-22T03:58:20;95892.34;;;17.86;100.00
71457;BME280;59263;48.160;11.752;2023-06-22T04:00:46;95908.34;;;17.91;100.00
71457;BME280;59263;48.160;11.752;2023-06-22T04:03:12;95953.72;;;18.20;100.00
71457;BME280;59263;48.160;11.752;2023-06-22T04:05:39;95930.25;;;18.11;100.00
71457;BME280;59263;48.160;11.752;2023-06-22T04:08:04;95835.84;;;17.55;100.00
71457;BME280;59263;48.160;11.752;2023-06-22T04:10:30;95832.88;;;17.58;100.00
71457;BME280;59263;48.160;11.752;2023-06-22T04:12:55;95885.16;;;17.95;100.00
71457;BME280;59263;48.160;11.752;2023-06-22T04:15:21;95887.06;;;18.01;100.00
71457;BME280;59263;48.160;11.752;2023-06-22T04:17:46;95907.94;;;18.16;100.00
71457;BME280;59263;48.160;11.752;2023-06-22T04:20:12;95938.84;;;18.48;100.00
71457;BME280;59263;48.160;11.752;2023-06-22T04:22:37;95893.72;;;18.25;100.00
71457;BME280;59263;48.160;11.752;2023-06-22T04:25:02;95921.16;;;18.50;100.00
71457;BME280;59263;48.160;11.752;2023-06-22T04:27:33;95892.81;;;18.39;100.00
71457;BME280;59263;48.160;11.752;2023-06-22T04:30:19;95917.31;;;18.53;100.00
71457;BME280;59263;48.160;11.752;2023-06-22T04:32:44;95912.66;;;18.48;100.00
71457;BME280;59263;48.160;11.752;2023-06-22T04:35:11;95927.72;;;18.68;100.00
71457;BME280;59263;48.160;11.752;2023-06-22T04:37:37;95926.31;;;18.65;100.00
71457;BME280;59263;48.160;11.752;2023-06-22T04:40:03;95907.03;;;18.51;100.00
71457;BME280;59263;48.160;11.752;2023-06-22T04:42:30;95913.25;;;18.72;100.00
71457;BME280;59263;48.160;11.752;2023-06-22T04:44:57;95926.63;;;18.83;100.00
71457;BME280;59263;48.160;11.752;2023-06-22T04:47:22;95930.34;;;18.96;100.00
71457;BME280;59263;48.160;11.752;2023-06-22T04:49:47;95916.28;;;19.03;100.00
71457;BME280;59263;48.160;11.752;2023-06-22T04:52:13;95920.56;;;19.11;100.00
71457;BME280;59263;48.160;11.752;2023-06-22T04:54:42;95916.34;;;19.17;100.00
71457;BME280;59263;48.160;11.752;2023-06-22T04:57:13;95918.56;;;19.20;100.00
71457;BME280;59263;48.160;11.752;2023-06-22T04:59:39;95898.97;;;19.16;100.00
71457;BME280;59263;48.160;11.752;2023-06-22T05:02:07;95882.00;;;19.12;100.00
71457;BME280;59263;48.160;11.752;2023-06-22T05:04:32;95893.00;;;19.35;100.00
71457;BME280;59263;48.160;11.752;2023-06-22T05:06:59;95894.28;;;19.52;100.00
71457;BME280;59263;48.160;11.752;2023-06-22T05:09:25;95894.50;;;19.57;100.00
71457;BME280;59263;48.160;11.752;2023-06-22T05:11:50;95891.28;;;19.55;100.00
71457;BME280;59263;48.160;11.752;2023-06-22T05:14:16;95886.88;;;19.63;100.00
71457;BME280;59263;48.160;11.752;2023-06-22T05:16:42;95892.41;;;19.88;100.00
71457;BME280;59263;48.160;11.752;2023-06-22T05:19:08;95872.22;;;19.88;100.00
71457;BME280;59263;48.160;11.752;2023-06-22T05:21:34;95877.47;;;20.01;100.00
71457;BME280;59263;48.160;11.752;2023-06-22T05:23:59;95871.00;;;19.97;100.00
71457;BME280;59263;48.160;11.752;2023-06-22T05:26:27;95869.00;;;19.99;100.00
71457;BME280;59263;48.160;11.752;2023-06-22T05:28:53;95869.38;;;20.10;100.00
71457;BME280;59263;48.160;11.752;2023-06-22T05:31:19;95872.22;;;20.15;100.00
71457;BME280;59263;48.160;11.752;2023-06-22T05:33:49;95870.59;;;20.27;100.00
71457;BME280;59263;48.160;11.752;2023-06-22T05:36:15;95860.91;;;20.34;100.00
71457;BME280;59263;48.160;11.752;2023-06-22T05:38:41;95880.75;;;20.57;100.00
71457;BME280;59263;48.160;11.752;2023-06-22T05:41:06;95886.41;;;20.73;100.00
71457;BME280;59263;48.160;11.752;2023-06-22T05:43:32;95852.84;;;20.56;100.00
71457;BME280;59263;48.160;11.752;2023-06-22T05:45:57;95872.41;;;20.86;100.00
71457;BME280;59263;48.160;11.752;2023-06-22T05:48:23;95883.28;;;21.03;100.00
71457;BME280;59263;48.160;11.752;2023-06-22T05:50:48;95859.19;;;21.06;100.00
71457;BME280;59263;48.160;11.752;2023-06-22T05:53:14;95840.59;;;20.94;100.00
71457;BME280;59263;48.160;11.752;2023-06-22T05:55:39;95851.09;;;21.01;100.00
71457;BME280;59263;48.160;11.752;2023-06-22T05:58:05;95861.16;;;21.24;100.00
71457;BME280;59263;48.160;11.752;2023-06-22T06:00:31;95839.28;;;21.23;100.00
71457;BME280;59263;48.160;11.752;2023-06-22T06:02:57;95841.69;;;21.38;100.00
71457;BME280;59263;48.160;11.752;2023-06-22T06:05:28;95870.19;;;21.55;100.00
71457;BME280;59263;48.160;11.752;2023-06-22T06:07:53;95860.56;;;21.67;100.00
71457;BME280;59263;48.160;11.752;2023-06-22T06:10:19;95861.94;;;21.76;100.00
71457;BME280;59263;48.160;11.752;2023-06-22T06:12:44;95856.28;;;21.72;100.00
71457;BME280;59263;48.160;11.752;2023-06-22T06:15:09;95832.41;;;21.67;100.00
71457;BME280;59263;48.160;11.752;2023-06-22T06:17:35;95846.63;;;21.91;100.00
71457;BME280;59263;48.160;11.752;2023-06-22T06:20:00;95855.84;;;22.14;100.00
71457;BME280;59263;48.160;11.752;2023-06-22T06:22:26;95838.78;;;22.10;100.00
71457;BME280;59263;48.160;11.752;2023-06-22T06:24:51;95856.75;;;22.26;100.00
71457;BME280;59263;48.160;11.752;2023-06-22T06:27:17;95824.22;;;22.14;100.00
71457;BME280;59263;48.160;11.752;2023-06-22T06:29:43;95811.19;;;22.19;100.00
71457;BME280;59263;48.160;11.752;2023-06-22T06:32:11;95803.31;;;22.37;100.00
71457;BME280;59263;48.160;11.752;2023-06-22T06:34:36;95807.59;;;22.57;100.00
71457;BME280;59263;48.160;11.752;2023-06-22T06:37:01;95802.19;;;22.70;100.00
71457;BME280;59263;48.160;11.752;2023-06-22T06:39:27;95802.47;;;22.80;100.00
71457;BME280;59263;48.160;11.752;2023-06-22T06:41:52;95775.81;;;22.70;100.00
71457;BME280;59263;48.160;11.752;2023-06-22T06:44:17;95772.00;;;22.84;100.00
71457;BME280;59263;48.160;11.752;2023-06-22T06:46:43;95782.84;;;22.94;100.00
71457;BME280;59263;48.160;11.752;2023-06-22T06:49:08;95816.19;;;23.26;100.00
71457;BME280;59263;48.160;11.752;2023-06-22T06:51:33;95800.75;;;23.11;100.00
71457;BME280;59263;48.160;11.752;2023-06-22T06:53:58;95823.28;;;23.43;100.00
71457;BME280;59263;48.160;11.752;2023-06-22T06:56:24;95807.34;;;23.62;100.00
71457;BME280;59263;48.160;11.752;2023-06-22T06:58:49;95768.66;;;23.56;100.00
71457;BME280;59263;48.160;11.752;2023-06-22T07:01:15;95808.50;;;23.84;100.00
71457;BME280;59263;48.160;11.752;2023-06-22T07:03:40;95794.47;;;23.84;100.00
71457;BME280;59263;48.160;11.752;2023-06-22T07:06:06;95812.69;;;24.04;100.00
71457;BME280;59263;48.160;11.752;2023-06-22T07:08:31;95798.41;;;24.05;100.00
71457;BME280;59263;48.160;11.752;2023-06-22T07:10:56;95792.91;;;24.18;100.00
71457;BME280;59263;48.160;11.752;2023-06-22T07:13:22;95813.38;;;24.34;100.00
71457;BME280;59263;48.160;11.752;2023-06-22T07:15:47;95786.63;;;24.43;100.00
71457;BME280;59263;48.160;11.752;2023-06-22T07:18:13;95797.88;;;24.50;100.00
71457;BME280;59263;48.160;11.752;2023-06-22T07:20:38;95810.19;;;24.56;100.00
71457;BME280;59263;48.160;11.752;2023-06-22T07:23:04;95823.19;;;24.69;100.00
71457;BME280;59263;48.160;11.752;2023-06-22T07:25:30;95821.94;;;24.60;100.00
71457;BME280;59263;48.160;11.752;2023-06-22T07:28:01;95784.31;;;24.46;100.00
71457;BME280;59263;48.160;11.752;2023-06-22T07:30:27;95817.19;;;24.85;100.00
71457;BME280;59263;48.160;11.752;2023-06-22T07:32:53;95783.81;;;24.84;100.00
71457;BME280;59263;48.160;11.752;2023-06-22T07:35:18;95780.09;;;24.97;100.00
71457;BME280;59263;48.160;11.752;2023-06-22T07:37:44;95809.13;;;25.32;100.00
71457;BME280;59263;48.160;11.752;2023-06-22T07:40:10;95794.25;;;25.43;100.00
71457;BME280;59263;48.160;11.752;2023-06-22T07:42:35;95771.31;;;25.49;100.00
71457;BME280;59263;48.160;11.752;2023-06-22T07:45:02;95742.88;;;25.61;100.00
71457;BME280;59263;48.160;11.752;2023-06-22T07:47:43;95776.53;;;25.89;100.00
71457;BME280;59263;48.160;11.752;2023-06-22T07:50:09;95773.78;;;25.84;100.00
71457;BME280;59263;48.160;11.752;2023-06-22T07:52:34;95783.19;;;25.92;100.00
71457;BME280;59263;48.160;11.752;2023-06-22T07:55:00;95777.41;;;25.95;100.00
71457;BME280;59263;48.160;11.752;2023-06-22T07:57:25;95747.25;;;25.84;100.00
71457;BME280;59263;48.160;11.752;2023-06-22T07:59:59;95772.19;;;26.00;100.00
71457;BME280;59263;48.160;11.752;2023-06-22T08:02:25;95754.81;;;26.09;100.00
71457;BME280;59263;48.160;11.752;2023-06-22T08:04:50;95782.63;;;26.40;100.00
71457;BME280;59263;48.160;11.752;2023-06-22T08:07:15;95782.44;;;26.47;100.00
71457;BME280;59263;48.160;11.752;2023-06-22T08:09:46;95788.84;;;26.68;100.00
71457;BME280;59263;48.160;11.752;2023-06-22T08:12:12;95734.34;;;26.60;100.00
71457;BME280;59263;48.160;11.752;2023-06-22T08:14:38;95740.00;;;26.69;100.00
71457;BME280;59263;48.160;11.752;2023-06-22T08:17:04;95752.97;;;26.87;100.00
71457;BME280;59263;48.160;11.752;2023-06-22T08:19:29;95767.06;;;26.88;100.00
71457;BME280;59263;48.160;11.752;2023-06-22T08:21:54;95790.66;;;27.06;100.00
71457;BME280;59263;48.160;11.752;2023-06-22T08:24:20;95724.06;;;26.91;100.00
71457;BME280;59263;48.160;11.752;2023-06-22T08:26:45;95743.00;;;27.16;100.00
71457;BME280;59263;48.160;11.752;2023-06-22T08:29:11;95733.88;;;27.34;100.00
71457;BME280;59263;48.160;11.752;2023-06-22T08:31:36;95769.19;;;27.84;100.00
71457;BME280;59263;48.160;11.752;2023-06-22T08:34:04;95705.78;;;27.43;100.00
71457;BME280;59263;48.160;11.752;2023-06-22T08:36:32;95717.69;;;27.68;100.00
71457;BME280;59263;48.160;11.752;2023-06-22T08:39:03;95728.03;;;27.64;100.00
71457;BME280;59263;48.160;11.752;2023-06-22T08:41:51;95762.13;;;27.99;100.00
71457;BME280;59263;48.160;11.752;2023-06-22T08:44:25;95705.56;;;27.50;100.00
71457;BME280;59263;48.160;11.752;2023-06-22T08:46:53;95760.66;;;27.82;100.00
71457;BME280;59263;48.160;11.752;2023-06-22T08:49:18;95743.00;;;27.70;100.00
71457;BME280;59263;48.160;11.752;2023-06-22T08:51:44;95731.66;;;27.53;100.00
71457;BME280;59263;48.160;11.752;2023-06-22T08:54:10;95736.97;;;27.53;100.00
71457;BME280;59263;48.160;11.752;2023-06-22T08:56:36;95734.78;;;27.45;100.00
71457;BME280;59263;48.160;11.752;2023-06-22T08:59:01;95769.97;;;27.57;100.00
71457;BME280;59263;48.160;11.752;2023-06-22T09:01:27;95760.34;;;27.51;100.00
71457;BME280;59263;48.160;11.752;2023-06-22T09:03:52;95758.41;;;27.73;100.00
71457;BME280;59263;48.160;11.752;2023-06-22T09:06:23;95749.50;;;27.85;100.00
71457;BME280;59263;48.160;11.752;2023-06-22T09:08:49;95733.34;;;27.91;100.00
71457;BME280;59263;48.160;11.752;2023-06-22T09:11:15;95747.03;;;28.10;100.00
71457;BME280;59263;48.160;11.752;2023-06-22T09:13:40;95751.41;;;28.27;100.00
71457;BME280;59263;48.160;11.752;2023-06-22T09:16:06;95678.38;;;28.07;100.00
71457;BME280;59263;48.160;11.752;2023-06-22T09:18:39;95688.22;;;28.49;100.00
71457;BME280;59263;48.160;11.752;2023-06-22T09:21:17;95678.13;;;28.61;100.00
71457;BME280;59263;48.160;11.752;2023-06-22T09:23:42;95747.06;;;29.00;100.00
71457;BME280;59263;48.160;11.752;2023-06-22T09:26:11;95706.41;;;28.67;100.00
71457;BME280;59263;48.160;11.752;2023-06-22T09:28:44;95706.91;;;28.59;100.00
71457;BME280;59263;48.160;11.752;2023-06-22T09:31:12;95736.28;;;28.85;100.00
71457;BME280;59263;48.160;11.752;2023-06-22T09:33:39;95737.06;;;28.75;100.00
71457;BME280;59263;48.160;11.752;2023-06-22T09:36:05;95712.81;;;28.66;100.00
71457;BME280;59263;48.160;11.752;2023-06-22T09:38:37;95742.25;;;29.02;100.00
71457;BME280;59263;48.160;11.752;2023-06-22T09:41:02;95727.94;;;29.24;100.00
71457;BME280;59263;48.160;11.752;2023-06-22T09:43:28;95666.06;;;29.11;100.00
71457;BME280;59263;48.160;11.752;2023-06-22T09:45:53;95705.06;;;29.69;96.14
71457;BME280;59263;48.160;11.752;2023-06-22T09:48:19;95705.63;;;29.71;99.17
71457;BME280;59263;48.160;11.752;2023-06-22T09:50:44;95701.09;;;29.71;98.05
71457;BME280;59263;48.160;11.752;2023-06-22T09:53:09;95700.25;;;29.65;100.00
71457;BME280;59263;48.160;11.752;2023-06-22T09:55:35;95718.94;;;29.76;100.00
71457;BME280;59263;48.160;11.752;2023-06-22T09:58:00;95730.94;;;30.09;100.00
71457;BME280;59263;48.160;11.752;2023-06-22T10:00:26;95696.53;;;29.82;94.69
71457;BME280;59263;48.160;11.752;2023-06-22T10:02:57;95700.28;;;29.76;96.85
71457;BME280;59263;48.160;11.752;2023-06-22T10:05:43;95706.13;;;29.88;100.00
71457;BME280;59263;48.160;11.752;2023-06-22T10:08:08;95710.66;;;30.03;94.40
71457;BME280;59263;48.160;11.752;2023-06-22T10:10:35;95685.06;;;29.81;96.66
71457;BME280;59263;48.160;11.752;2023-06-22T10:13:07;95683.16;;;30.02;96.92
71457;BME280;59263;48.160;11.752;2023-06-22T10:15:34;95714.66;;;30.31;95.83
71457;BME280;59263;48.160;11.752;2023-06-22T10:17:59;95693.78;;;30.43;88.58
71457;BME280;59263;48.160;11.752;2023-06-22T10:20:24;95661.19;;;30.46;85.16
71457;BME280;59263;48.160;11.752;2023-06-22T10:22:51;95695.22;;;30.90;85.56
71457;BME280;59263;48.160;11.752;2023-06-22T10:25:16;95659.03;;;30.53;86.99
71457;BME280;59263;48.160;11.752;2023-06-22T10:27:41;95659.53;;;30.60;87.88
71457;BME280;59263;48.160;11.752;2023-06-22T10:30:11;95655.50;;;30.68;83.07
71457;BME280;59263;48.160;11.752;2023-06-22T10:32:38;95678.06;;;30.96;83.73
71457;BME280;59263;48.160;11.752;2023-06-22T10:35:04;95674.75;;;31.15;74.66
71457;BME280;59263;48.160;11.752;2023-06-22T10:37:29;95649.72;;;31.05;77.40
71457;BME280;59263;48.160;11.752;2023-06-22T10:39:55;95690.66;;;31.45;79.99
71457;BME280;59263;48.160;11.752;2023-06-22T10:42:20;95660.16;;;31.46;79.42
71457;BME280;59263;48.160;11.752;2023-06-22T10:44:46;95678.28;;;31.54;75.16
71457;BME280;59263;48.160;11.752;2023-06-22T10:47:11;95636.00;;;31.17;81.51
71457;BME280;59263;48.160;11.752;2023-06-22T10:49:40;95650.63;;;31.30;83.16
71457;BME280;59263;48.160;11.752;2023-06-22T10:52:07;95659.03;;;31.52;81.48
71457;BME280;59263;48.160;11.752;2023-06-22T10:54:33;95663.50;;;31.62;83.19
71457;BME280;59263;48.160;11.752;2023-06-22T10:56:59;95641.38;;;31.51;80.28
71457;BME280;59263;48.160;11.752;2023-06-22T10:59:25;95667.25;;;31.95;82.05
71457;BME280;59263;48.160;11.752;2023-06-22T11:01:51;95595.75;;;31.67;74.27
71457;BME280;59263;48.160;11.752;2023-06-22T11:04:17;95603.63;;;31.87;76.21
71457;BME280;59263;48.160;11.752;2023-06-22T11:06:43;95602.66;;;32.02;81.55
71457;BME280;59263;48.160;11.752;2023-06-22T11:09:08;95657.69;;;32.37;80.53
71457;BME280;59263;48.160;11.752;2023-06-22T11:11:34;95619.97;;;32.10;82.23
71457;BME280;59263;48.160;11.752;2023-06-22T11:13:59;95652.22;;;32.52;76.46
71457;BME280;59263;48.160;11.752;2023-06-22T11:16:25;95622.59;;;32.39;75.61
71457;BME280;59263;48.160;11.752;2023-06-22T11:18:50;95650.72;;;32.41;86.50
71457;BME280;59263;48.160;11.752;2023-06-22T11:21:15;95636.19;;;31.94;82.93
71457;BME280;59263;48.160;11.752;2023-06-22T11:23:42;95612.47;;;31.53;85.55
71457;BME280;59263;48.160;11.752;2023-06-22T11:26:07;95631.25;;;31.48;86.64
71457;BME280;59263;48.160;11.752;2023-06-22T11:28:32;95642.53;;;31.40;89.16
71457;BME280;59263;48.160;11.752;2023-06-22T11:30:58;95646.44;;;31.14;92.99
71457;BME280;59263;48.160;11.752;2023-06-22T11:33:24;95607.47;;;31.02;94.35
71457;BME280;59263;48.160;11.752;2023-06-22T11:35:49;95631.91;;;31.30;87.51
71457;BME280;59263;48.160;11.752;2023-06-22T11:38:14;95637.25;;;31.30;89.60
71457;BME280;59263;48.160;11.752;2023-06-22T11:40:39;95588.28;;;31.00;95.01
71457;BME280;59263;48.160;11.752;2023-06-22T11:43:05;95633.44;;;31.41;91.12
71457;BME280;59263;48.160;11.752;2023-06-22T11:45:30;95603.78;;;31.38;95.24
71457;BME280;59263;48.160;11.752;2023-06-22T11:47:55;95618.91;;;31.52;89.76
71457;BME280;59263;48.160;11.752;2023-06-22T11:50:21;95619.72;;;31.53;89.03
71457;BME280;59263;48.160;11.752;2023-06-22T11:52:46;95572.41;;;31.48;86.06
71457;BME280;59263;48.160;11.752;2023-06-22T11:55:12;95587.59;;;31.53;87.48
71457;BME280;59263;48.160;11.752;2023-06-22T11:57:38;95558.38;;;31.27;89.59
71457;BME280;59263;48.160;11.752;2023-06-22T12:00:16;95618.56;;;31.59;96.57
71457;BME280;59263;48.160;11.752;2023-06-22T12:02:46;95589.81;;;31.46;91.97
71457;BME280;59263;48.160;11.752;2023-06-22T12:05:11;95596.91;;;31.61;86.77
71457;BME280;59263;48.160;11.752;2023-06-22T12:07:37;95599.75;;;31.69;85.17
71457;BME280;59263;48.160;11.752;2023-06-22T12:10:03;95601.41;;;31.94;81.46
71457;BME280;59263;48.160;11.752;2023-06-22T12:12:29;95594.97;;;31.95;81.87
71457;BME280;59263;48.160;11.752;2023-06-22T12:14:54;95597.63;;;31.95;81.19
71457;BME280;59263;48.160;11.752;2023-06-22T12:17:19;95577.09;;;31.91;86.06
71457;BME280;59263;48.160;11.752;2023-06-22T12:19:44;95587.00;;;31.90;83.50
71457;BME280;59263;48.160;11.752;2023-06-22T12:22:10;95593.75;;;32.07;79.37
71457;BME280;59263;48.160;11.752;2023-06-22T12:24:35;95580.47;;;31.96;82.44
71457;BME280;59263;48.160;11.752;2023-06-22T12:27:00;95527.38;;;31.55;88.56
71457;BME280;59263;48.160;11.752;2023-06-22T12:29:27;95528.34;;;31.65;83.39
71457;BME280;59263;48.160;11.752;2023-06-22T12:31:53;95566.16;;;31.87;86.81
71457;BME280;59263;48.160;11.752;2023-06-22T12:34:18;95502.06;;;31.72;81.37
71457;BME280;59263;48.160;11.752;2023-06-22T12:36:43;95522.69;;;31.95;76.79
71457;BME280;59263;48.160;11.752;2023-06-22T12:39:09;95551.59;;;32.41;77.68
71457;BME280;59263;48.160;11.752;2023-06-22T12:41:34;95544.63;;;32.40;78.14
71457;BME280;59263;48.160;11.752;2023-06-22T12:44:00;95512.41;;;32.26;74.33
71457;BME280;59263;48.160;11.752;2023-06-22T12:46:25;95515.47;;;32.15;79.35
71457;BME280;59263;48.160;11.752;2023-06-22T12:48:50;95550.44;;;32.47;74.62